Time;durP1;ratioP1;P1;durP2;ratioP2;P2;SDS_P1;SDS_P2;PMS_P1;PMS_P2;Temp;Humidity;BMP_temperature;BMP_pressure;BME280_temperature;BME280_humidity;BME280_pressure;Samples;Min_cycle;Max_cycle;Signal;HPM_P1;HPM_P2
2022/03/13 00:02:07;;;;;;;39.93;17.47;;;-4.40;58.90;;;;;;5056859;28;20497;-76
2022/03/13 00:04:35;;;;;;;35.97;17.27;;;-4.40;59.30;;;;;;5057037;28;20025;-69
2022/03/13 00:07:09;;;;;;;38.67;16.40;;;-4.50;59.50;;;;;;5057030;28;20404;-75
2022/03/13 00:09:35;;;;;;;38.40;16.70;;;-4.50;59.50;;;;;;5056939;28;20017;-68
2022/03/13 00:12:08;;;;;;;33.53;15.67;;;-4.50;59.30;;;;;;5056882;28;20386;-70
2022/03/13 00:14:34;;;;;;;31.50;15.45;;;-4.60;59.10;;;;;;5056822;28;20036;-76
2022/03/13 00:17:00;;;;;;;39.10;16.87;;;-4.60;58.90;;;;;;5056762;28;20028;-76
2022/03/13 00:19:26;;;;;;;38.17;16.77;;;-4.50;59.40;;;;;;5056775;28;20023;-76
2022/03/13 00:21:53;;;;;;;32.77;17.00;;;-4.60;59.00;;;;;;5056551;28;20024;-69
2022/03/13 00:24:22;;;;;;;30.20;15.80;;;-4.50;58.80;;;;;;5056476;28;20049;-69
2022/03/13 00:26:52;;;;;;;33.33;15.77;;;-4.50;59.20;;;;;;5056600;28;20021;-69
2022/03/13 00:29:18;;;;;;;36.80;16.63;;;-4.50;58.90;;;;;;5056574;28;20033;-69
2022/03/13 00:31:44;;;;;;;35.73;15.27;;;-4.40;58.00;;;;;;5056334;28;20056;-76
2022/03/13 00:34:10;;;;;;;35.22;16.40;;;-4.30;57.60;;;;;;5056323;28;20064;-76
2022/03/13 00:36:35;;;;;;;33.40;17.33;;;-4.30;57.30;;;;;;5055117;28;20418;-76
2022/03/13 00:39:01;;;;;;;33.60;15.67;;;-4.20;57.30;;;;;;5055030;28;20040;-68
2022/03/13 00:41:27;;;;;;;39.05;17.10;;;-4.20;57.50;;;;;;5056535;28;20506;-76
2022/03/13 00:43:52;;;;;;;37.17;18.83;;;-4.30;57.90;;;;;;5056315;28;20448;-75
2022/03/13 00:46:18;;;;;;;33.53;17.27;;;-4.30;58.70;;;;;;5054286;28;20060;-76
2022/03/13 00:48:44;;;;;;;32.10;16.98;;;-4.40;59.50;;;;;;5052935;28;20422;-77
2022/03/13 00:51:09;;;;;;;40.03;17.83;;;-4.50;60.20;;;;;;5054123;28;20036;-76
2022/03/13 00:53:36;;;;;;;35.28;19.30;;;-4.50;60.90;;;;;;5052913;28;20029;-76
2022/03/13 00:56:03;;;;;;;36.38;17.55;;;-4.60;61.20;;;;;;5053949;28;20099;-69
2022/03/13 00:58:28;;;;;;;42.93;18.60;;;-4.60;61.40;;;;;;5054004;28;20032;-76
2022/03/13 01:00:54;;;;;;;39.40;18.30;;;-4.70;61.40;;;;;;5054993;28;20423;-76
2022/03/13 01:03:43;;;;;;;40.27;19.57;;;-4.70;61.30;;;;;;5054081;28;20037;-68
2022/03/13 01:06:09;;;;;;;78.53;26.77;;;-4.70;62.10;;;;;;5032979;28;20041;-69
2022/03/13 01:08:35;;;;;;;113.97;39.67;;;-4.70;61.30;;;;;;5034381;28;20013;-76
2022/03/13 01:11:03;;;;;;;148.67;48.53;;;-4.70;61.30;;;;;;5041226;28;20013;-76
2022/03/13 01:13:30;;;;;;;247.53;71.67;;;-4.80;61.60;;;;;;5054238;28;20032;-68
2022/03/13 01:16:10;;;;;;;175.17;55.60;;;-4.80;61.60;;;;;;5055188;28;20097;-69
2022/03/13 01:18:40;;;;;;;120.87;39.10;;;-4.80;61.30;;;;;;5053646;28;20056;-68
2022/03/13 01:21:05;;;;;;;147.60;44.10;;;-4.80;61.30;;;;;;5053911;28;20025;-69
2022/03/13 01:23:31;;;;;;;114.60;37.80;;;-4.90;61.20;;;;;;5055344;28;20055;-76
2022/03/13 01:26:21;;;;;;;105.47;34.27;;;-4.90;61.00;;;;;;5055410;28;20507;-69
2022/03/13 01:28:49;;;;;;;55.47;20.87;;;-4.90;60.60;;;;;;5055541;28;20028;-76
2022/03/13 01:31:15;;;;;;;65.33;24.37;;;-4.80;60.20;;;;;;5055332;28;20028;-69
2022/03/13 01:33:41;;;;;;;66.97;25.92;;;-4.80;59.60;;;;;;5055435;28;20532;-76
2022/03/13 01:36:06;;;;;;;77.03;29.03;;;-4.80;59.70;;;;;;5053882;28;20029;-69
2022/03/13 01:38:33;;;;;;;94.77;31.63;;;-4.90;60.60;;;;;;5055282;28;20052;-68
2022/03/13 01:40:58;;;;;;;88.67;32.67;;;-4.90;61.30;;;;;;5053905;28;20074;-76
2022/03/13 01:43:25;;;;;;;79.10;28.63;;;-5.00;62.20;;;;;;5054861;28;20699;-76
2022/03/13 01:45:51;;;;;;;79.60;28.00;;;-5.00;63.20;;;;;;5054838;28;20156;-69
2022/03/13 01:48:17;;;;;;;79.90;28.93;;;-5.10;64.60;;;;;;5055092;28;20095;-76
2022/03/13 01:50:42;;;;;;;62.83;26.33;;;-5.10;65.50;;;;;;5054992;28;20017;-76
2022/03/13 01:53:08;;;;;;;69.67;26.67;;;-5.20;65.60;;;;;;5054919;28;20037;-76
2022/03/13 01:55:34;;;;;;;65.13;24.97;;;-5.20;65.60;;;;;;5053684;28;20044;-69
2022/03/13 01:57:59;;;;;;;52.33;21.10;;;-5.20;65.60;;;;;;5054836;28;20485;-68
2022/03/13 02:00:26;;;;;;;38.67;20.90;;;-5.30;65.30;;;;;;5053547;28;20036;-76
2022/03/13 02:02:52;;;;;;;41.03;15.50;;;-5.30;64.90;;;;;;5053427;28;20143;-76
2022/03/13 02:05:32;;;;;;;35.10;14.93;;;-5.30;64.60;;;;;;5054595;28;20136;-76
2022/03/13 02:07:59;;;;;;;34.00;16.20;;;-5.30;64.50;;;;;;5054036;28;20595;-76
2022/03/13 02:10:25;;;;;;;37.17;15.83;;;-5.30;64.30;;;;;;5054570;28;20029;-76
2022/03/13 02:12:51;;;;;;;37.87;16.50;;;-5.30;64.20;;;;;;5054635;28;20028;-69
2022/03/13 02:15:17;;;;;;;37.67;15.23;;;-5.40;64.30;;;;;;5053538;28;20101;-69
2022/03/13 02:17:43;;;;;;;29.57;14.33;;;-5.30;64.70;;;;;;5054511;28;20486;-76
2022/03/13 02:20:22;;;;;;;31.53;14.63;;;-5.40;64.80;;;;;;5053168;28;20077;-70
2022/03/13 02:22:47;;;;;;;28.17;14.17;;;-5.50;65.60;;;;;;5054416;28;20082;-76
2022/03/13 02:25:19;;;;;;;30.90;15.30;;;-5.50;65.90;;;;;;5053126;28;20025;-76
2022/03/13 02:27:45;;;;;;;26.97;13.77;;;-5.50;66.00;;;;;;5054417;28;20108;-68
2022/03/13 02:30:11;;;;;;;25.67;13.53;;;-5.50;65.90;;;;;;5054252;28;20134;-76
2022/03/13 02:32:36;;;;;;;26.60;14.30;;;-5.50;66.00;;;;;;5052887;28;20436;-76
2022/03/13 02:35:02;;;;;;;27.33;13.67;;;-5.60;65.90;;;;;;5054139;28;20096;-76
2022/03/13 02:37:36;;;;;;;28.77;13.40;;;-5.60;66.20;;;;;;5054063;28;20107;-68
2022/03/13 02:40:03;;;;;;;25.47;13.03;;;-5.60;66.20;;;;;;5054067;28;20024;-76
2022/03/13 02:42:29;;;;;;;32.77;14.57;;;-5.60;66.00;;;;;;5053853;28;20040;-68
2022/03/13 02:44:54;;;;;;;28.73;12.77;;;-5.60;66.10;;;;;;5054001;28;20025;-76
2022/03/13 02:47:20;;;;;;;25.53;12.67;;;-5.60;66.40;;;;;;5053946;28;20036;-73
2022/03/13 02:49:45;;;;;;;27.87;13.33;;;-5.60;66.30;;;;;;5052708;28;20064;-76
2022/03/13 02:52:11;;;;;;;27.10;12.63;;;-5.50;66.40;;;;;;5053937;28;20428;-76
2022/03/13 02:54:36;;;;;;;27.60;13.33;;;-5.60;66.20;;;;;;5052735;28;20502;-76
2022/03/13 02:57:02;;;;;;;22.87;12.60;;;-5.60;66.20;;;;;;5053840;28;20033;-70
2022/03/13 02:59:29;;;;;;;23.30;13.37;;;-5.60;66.20;;;;;;5052457;28;20514;-76
2022/03/13 03:01:54;;;;;;;27.83;15.77;;;-5.60;66.10;;;;;;5053483;28;20017;-76
2022/03/13 03:04:25;;;;;;;24.23;13.90;;;-5.50;66.20;;;;;;5052173;28;20047;-69
2022/03/13 03:06:54;;;;;;;28.03;13.93;;;-5.60;66.30;;;;;;5052354;28;20032;-69
2022/03/13 03:09:20;;;;;;;26.83;13.40;;;-5.60;66.60;;;;;;5053578;28;20029;-77
2022/03/13 03:11:47;;;;;;;34.33;15.30;;;-5.60;67.40;;;;;;5053448;28;20029;-76
2022/03/13 03:14:12;;;;;;;26.40;14.53;;;-5.70;67.80;;;;;;5053438;28;20032;-69
2022/03/13 03:16:38;;;;;;;28.87;16.07;;;-5.80;68.40;;;;;;5053426;28;20037;-76
2022/03/13 03:19:04;;;;;;;30.73;16.50;;;-5.80;68.90;;;;;;5053437;28;20053;-75
2022/03/13 03:21:30;;;;;;;25.87;14.37;;;-5.90;69.60;;;;;;5053445;28;20025;-76
2022/03/13 03:23:55;;;;;;;30.63;14.47;;;-5.90;69.90;;;;;;5051835;28;20056;-68
2022/03/13 03:26:21;;;;;;;25.67;12.90;;;-5.90;70.50;;;;;;5052982;28;20664;-69
2022/03/13 03:28:46;;;;;;;23.87;13.10;;;-5.90;70.60;;;;;;5053177;28;20075;-76
2022/03/13 03:31:12;;;;;;;33.43;13.20;;;-5.90;70.40;;;;;;5053241;28;20021;-76
2022/03/13 03:33:38;;;;;;;24.17;12.63;;;-5.90;70.00;;;;;;5053352;28;20017;-76
2022/03/13 03:36:03;;;;;;;24.23;12.97;;;-5.90;69.70;;;;;;5053226;28;20020;-69
2022/03/13 03:38:29;;;;;;;26.03;13.10;;;-5.90;69.40;;;;;;5053317;28;20025;-76
2022/03/13 03:40:54;;;;;;;26.13;12.67;;;-5.90;69.40;;;;;;5053165;28;20444;-76
2022/03/13 03:43:20;;;;;;;24.70;12.33;;;-6.00;69.10;;;;;;5053190;28;20029;-76
2022/03/13 03:45:46;;;;;;;22.07;11.53;;;-6.00;69.20;;;;;;5051912;28;20017;-69
2022/03/13 03:48:11;;;;;;;22.00;12.80;;;-6.00;69.20;;;;;;5053210;28;20029;-76
2022/03/13 03:50:37;;;;;;;23.37;11.10;;;-6.00;69.00;;;;;;5053057;28;20017;-69
2022/03/13 03:53:02;;;;;;;27.30;12.13;;;-6.00;69.00;;;;;;5053077;28;20036;-76
2022/03/13 03:55:28;;;;;;;21.60;12.13;;;-6.10;69.30;;;;;;5052976;28;20437;-69
2022/03/13 03:57:54;;;;;;;23.87;12.17;;;-6.00;69.40;;;;;;5053054;28;20029;-75
2022/03/13 04:00:23;;;;;;;23.50;13.23;;;-6.10;69.50;;;;;;5053012;28;20052;-69
2022/03/13 04:02:49;;;;;;;60.83;17.17;;;-6.10;69.90;;;;;;5052991;28;20390;-69
2022/03/13 04:05:14;;;;;;;24.47;10.47;;;-6.20;70.30;;;;;;5052901;28;20028;-70
2022/03/13 04:07:40;;;;;;;17.27;10.17;;;-6.20;70.60;;;;;;5052947;28;20025;-76
2022/03/13 04:10:08;;;;;;;24.40;10.97;;;-6.20;70.60;;;;;;5052819;28;20471;-76
2022/03/13 04:12:34;;;;;;;20.23;12.13;;;-6.20;70.40;;;;;;5051764;28;20017;-76
2022/03/13 04:15:01;;;;;;;26.20;10.37;;;-6.30;70.60;;;;;;5051556;28;20386;-69
2022/03/13 04:17:27;;;;;;;31.10;14.23;;;-6.40;71.00;;;;;;5052939;28;20021;-76
2022/03/13 04:19:53;;;;;;;21.23;10.87;;;-6.40;71.70;;;;;;5051548;28;20072;-69
2022/03/13 04:22:19;;;;;;;20.03;11.37;;;-6.40;72.20;;;;;;5052662;28;20414;-68
2022/03/13 04:24:44;;;;;;;27.90;12.73;;;-6.40;72.40;;;;;;5052963;28;20045;-69
2022/03/13 04:27:10;;;;;;;27.57;11.73;;;-6.40;72.70;;;;;;5052719;28;20021;-76
2022/03/13 04:29:36;;;;;;;29.90;12.67;;;-6.50;73.00;;;;;;5052716;28;20053;-70
2022/03/13 04:32:04;;;;;;;23.77;10.77;;;-6.40;73.10;;;;;;5052422;28;20021;-72
2022/03/13 04:34:29;;;;;;;30.30;11.70;;;-6.40;73.10;;;;;;5052458;28;20017;-69
2022/03/13 04:36:56;;;;;;;22.43;10.50;;;-6.50;73.00;;;;;;5052478;28;20021;-68
2022/03/13 04:39:21;;;;;;;27.43;11.60;;;-6.50;73.00;;;;;;5054522;28;20032;-76
2022/03/13 04:41:47;;;;;;;22.63;10.87;;;-6.50;73.20;;;;;;5056201;28;20104;-68
2022/03/13 04:44:13;;;;;;;35.07;12.70;;;-6.50;73.30;;;;;;5056255;28;20029;-76
2022/03/13 04:46:39;;;;;;;22.27;11.63;;;-6.50;73.50;;;;;;5056244;28;20024;-70
2022/03/13 04:49:04;;;;;;;20.60;9.87;;;-6.50;73.50;;;;;;5056275;28;20021;-76
2022/03/13 04:51:31;;;;;;;25.60;11.37;;;-6.50;73.70;;;;;;5054955;28;20021;-68
2022/03/13 04:53:57;;;;;;;22.47;11.77;;;-6.50;73.60;;;;;;5056063;28;20021;-70
2022/03/13 04:56:22;;;;;;;15.63;9.43;;;-6.60;73.50;;;;;;5056085;28;20074;-69
2022/03/13 04:58:48;;;;;;;24.43;10.50;;;-6.50;73.40;;;;;;5054694;28;20032;-76
2022/03/13 05:01:13;;;;;;;17.03;9.40;;;-6.50;73.50;;;;;;5054565;28;20508;-68
2022/03/13 05:03:39;;;;;;;20.17;10.53;;;-6.60;73.50;;;;;;5055819;28;20033;-75
2022/03/13 05:06:05;;;;;;;25.60;10.30;;;-6.60;73.70;;;;;;5055736;28;20411;-75
2022/03/13 05:08:34;;;;;;;18.67;12.57;;;-6.60;73.60;;;;;;5055889;28;20021;-69
2022/03/13 05:11:00;;;;;;;21.77;10.50;;;-6.60;73.60;;;;;;5054433;28;20033;-76
2022/03/13 05:13:26;;;;;;;24.53;11.30;;;-6.60;73.60;;;;;;5055760;28;20029;-75
2022/03/13 05:15:53;;;;;;;21.80;10.10;;;-6.60;74.10;;;;;;5054411;28;20107;-68
2022/03/13 05:18:19;;;;;;;20.10;10.33;;;-6.60;74.80;;;;;;5055649;28;20028;-75
2022/03/13 05:20:45;;;;;;;13.73;8.60;;;-6.60;75.30;;;;;;5054346;28;20021;-68
2022/03/13 05:23:11;;;;;;;14.30;8.93;;;-6.60;75.70;;;;;;5055319;28;20743;-68
2022/03/13 05:25:38;;;;;;;18.03;10.03;;;-6.50;75.50;;;;;;5055549;28;20386;-76
2022/03/13 05:28:13;;;;;;;17.53;9.23;;;-6.50;75.30;;;;;;5055404;28;20067;-76
2022/03/13 05:30:39;;;;;;;16.13;9.60;;;-6.50;75.20;;;;;;5055527;28;20032;-76
2022/03/13 05:33:06;;;;;;;17.63;8.33;;;-6.40;75.50;;;;;;5055355;28;20025;-68
2022/03/13 05:35:33;;;;;;;16.60;8.80;;;-6.40;75.60;;;;;;5055179;28;20029;-76
2022/03/13 05:37:59;;;;;;;20.67;9.60;;;-6.40;74.90;;;;;;5055266;28;20025;-68
2022/03/13 05:40:25;;;;;;;20.00;8.87;;;-6.30;75.10;;;;;;5055390;28;20100;-69
2022/03/13 05:42:55;;;;;;;18.77;10.63;;;-6.30;75.40;;;;;;5053755;28;20071;-76
2022/03/13 05:45:22;;;;;;;24.70;11.10;;;-6.20;75.70;;;;;;5055266;28;20021;-68
2022/03/13 05:47:53;;;;;;;22.33;9.97;;;-6.20;75.90;;;;;;5053889;28;20017;-68
2022/03/13 05:50:19;;;;;;;22.03;12.57;;;-6.10;76.50;;;;;;5054848;28;20024;-68
2022/03/13 05:52:46;;;;;;;24.33;11.33;;;-6.00;76.80;;;;;;5053768;28;20399;-76
2022/03/13 05:55:13;;;;;;;24.77;11.77;;;-6.00;77.10;;;;;;5055126;28;20104;-68
2022/03/13 05:57:39;;;;;;;21.00;10.83;;;-5.90;77.00;;;;;;5054943;28;20033;-76
2022/03/13 06:00:08;;;;;;;23.97;9.77;;;-5.80;77.30;;;;;;5054901;28;20025;-69
2022/03/13 06:02:39;;;;;;;22.20;11.53;;;-5.70;76.60;;;;;;5054645;28;20402;-76
2022/03/13 06:05:05;;;;;;;21.00;11.70;;;-5.60;76.50;;;;;;5054790;28;20021;-68
2022/03/13 06:07:31;;;;;;;21.33;11.63;;;-5.50;77.10;;;;;;5053449;28;20496;-77
2022/03/13 06:09:56;;;;;;;24.40;12.30;;;-5.40;77.60;;;;;;5054520;28;20017;-69
2022/03/13 06:12:22;;;;;;;21.97;11.90;;;-5.30;78.00;;;;;;5054528;28;20025;-77
2022/03/13 06:14:48;;;;;;;19.93;11.03;;;-5.20;77.70;;;;;;5054540;28;20033;-76
2022/03/13 06:17:13;;;;;;;28.57;15.67;;;-5.10;77.00;;;;;;5054626;28;20047;-68
2022/03/13 06:19:42;;;;;;;33.97;16.40;;;-4.90;76.20;;;;;;5054517;28;20078;-76
2022/03/13 06:22:12;;;;;;;27.23;14.77;;;-4.80;74.70;;;;;;5054357;28;20152;-76
2022/03/13 06:24:37;;;;;;;28.60;14.90;;;-4.70;74.50;;;;;;5054444;28;20049;-76
2022/03/13 06:27:05;;;;;;;24.13;13.03;;;-4.60;74.20;;;;;;5054324;28;20031;-69
2022/03/13 06:29:31;;;;;;;31.87;13.73;;;-4.50;75.10;;;;;;5054372;28;20364;-68
2022/03/13 06:31:57;;;;;;;22.67;13.27;;;-4.40;75.20;;;;;;5054087;28;20024;-76
2022/03/13 06:34:23;;;;;;;28.40;13.57;;;-4.30;75.50;;;;;;5052907;28;20033;-76
2022/03/13 06:36:48;;;;;;;32.70;14.20;;;-4.30;76.30;;;;;;5054182;28;20039;-77
2022/03/13 06:39:14;;;;;;;24.00;11.60;;;-4.10;77.90;;;;;;5054102;28;20100;-68
2022/03/13 06:41:39;;;;;;;26.53;13.73;;;-4.00;79.50;;;;;;5054083;28;20021;-68
2022/03/13 06:44:05;;;;;;;29.97;16.10;;;-3.90;81.40;;;;;;5053953;28;20032;-77
2022/03/13 06:46:32;;;;;;;43.23;18.93;;;-3.70;81.40;;;;;;5053987;28;20410;-76
2022/03/13 06:48:59;;;;;;;42.30;19.80;;;-3.60;81.60;;;;;;5053898;28;20105;-75
2022/03/13 06:51:25;;;;;;;30.80;15.70;;;-3.40;81.10;;;;;;5052873;28;20125;-75
2022/03/13 06:53:50;;;;;;;29.92;13.40;;;-3.30;79.20;;;;;;5053794;28;20097;-75
2022/03/13 06:56:16;;;;;;;21.70;11.45;;;-3.10;75.50;;;;;;5052555;28;20056;-76
2022/03/13 06:58:42;;;;;;;27.05;13.65;;;-2.80;71.80;;;;;;5053619;28;20055;-76
2022/03/13 07:01:08;;;;;;;28.08;14.40;;;-2.50;70.60;;;;;;5051850;28;20028;-76
2022/03/13 07:03:34;;;;;;;33.17;16.55;;;-2.30;68.70;;;;;;5053593;28;20087;-69
2022/03/13 07:06:02;;;;;;;29.30;15.80;;;-2.00;67.50;;;;;;5053617;28;20429;-69
2022/03/13 07:08:28;;;;;;;39.42;17.52;;;-1.80;68.80;;;;;;5053515;28;20025;-76
2022/03/13 07:10:54;;;;;;;38.30;18.13;;;-1.60;68.40;;;;;;5053498;28;20443;-69
2022/03/13 07:13:20;;;;;;;45.25;18.35;;;-1.30;66.90;;;;;;5053619;28;20025;-69
2022/03/13 07:15:48;;;;;;;30.00;14.73;;;-1.10;67.10;;;;;;5053481;28;20017;-77
2022/03/13 07:18:13;;;;;;;27.70;13.68;;;-0.80;64.70;;;;;;5052250;28;20053;-69
2022/03/13 07:20:39;;;;;;;24.38;13.35;;;-0.40;62.40;;;;;;5053358;28;20083;-69
2022/03/13 07:23:04;;;;;;;20.88;14.57;;;0.00;58.80;;;;;;5053091;28;20045;-69
2022/03/13 07:25:30;;;;;;;18.85;10.38;;;0.30;55.00;;;;;;5053398;28;20021;-69
2022/03/13 07:27:56;;;;;;;21.42;11.65;;;0.60;53.00;;;;;;5053149;28;20033;-76
2022/03/13 07:30:21;;;;;;;29.25;14.25;;;0.80;51.90;;;;;;5052044;28;20360;-69
2022/03/13 07:32:47;;;;;;;37.63;20.92;;;1.00;50.40;;;;;;5053285;28;20029;-69
2022/03/13 07:35:13;;;;;;;35.75;19.85;;;1.20;49.40;;;;;;5053298;28;20021;-77
2022/03/13 07:37:38;;;;;;;25.00;13.18;;;1.30;49.30;;;;;;5053087;28;20025;-77
2022/03/13 07:40:05;;;;;;;30.83;17.98;;;1.40;49.00;;;;;;5052946;28;20021;-76
2022/03/13 07:42:31;;;;;;;29.65;15.55;;;1.50;48.90;;;;;;5053028;28;20025;-69
2022/03/13 07:44:56;;;;;;;32.55;19.33;;;1.60;48.00;;;;;;5053012;28;20032;-69
2022/03/13 07:47:22;;;;;;;24.20;15.13;;;1.70;47.80;;;;;;5053037;28;20029;-69
2022/03/13 07:49:48;;;;;;;47.95;23.05;;;1.80;48.60;;;;;;5053050;28;20471;-76
2022/03/13 07:52:13;;;;;;;38.13;18.83;;;1.90;48.70;;;;;;5052846;28;20021;-69
2022/03/13 07:54:39;;;;;;;26.27;13.23;;;2.10;48.70;;;;;;5052963;28;20026;-70
2022/03/13 07:57:04;;;;;;;22.92;11.63;;;2.10;48.60;;;;;;5052908;28;20035;-69
2022/03/13 07:59:30;;;;;;;23.42;11.75;;;2.20;48.10;;;;;;5052711;28;20033;-70
2022/03/13 08:01:55;;;;;;;27.58;13.45;;;2.20;48.10;;;;;;5052818;28;20029;-69
2022/03/13 08:04:21;;;;;;;24.52;12.75;;;2.30;48.20;;;;;;5052611;28;20397;-77
2022/03/13 08:06:47;;;;;;;42.15;19.25;;;2.40;47.80;;;;;;5052624;28;20044;-77
2022/03/13 08:09:13;;;;;;;32.15;15.93;;;2.50;47.90;;;;;;5052600;28;20088;-77
2022/03/13 08:11:39;;;;;;;28.65;15.10;;;2.60;48.10;;;;;;5050535;28;20372;-69
2022/03/13 08:14:08;;;;;;;153.00;65.05;;;2.60;47.00;;;;;;5054028;28;20052;-77
2022/03/13 08:16:35;;;;;;;30.25;15.38;;;2.70;46.60;;;;;;5056624;28;20028;-69
2022/03/13 08:19:01;;;;;;;56.65;26.50;;;2.80;46.80;;;;;;5055468;28;20028;-69
2022/03/13 08:21:27;;;;;;;89.78;37.10;;;2.90;47.00;;;;;;5055486;28;20112;-77
2022/03/13 08:23:54;;;;;;;58.53;26.75;;;3.00;47.00;;;;;;5052480;28;20049;-69
2022/03/13 08:26:20;;;;;;;82.78;35.15;;;3.10;46.40;;;;;;5056308;28;20363;-69
2022/03/13 08:28:45;;;;;;;213.43;83.15;;;3.30;46.00;;;;;;5055080;28;20079;-77
2022/03/13 08:31:11;;;;;;;53.60;21.50;;;3.40;45.00;;;;;;5056271;28;20032;-69
2022/03/13 08:33:37;;;;;;;164.77;64.60;;;3.50;45.40;;;;;;5056381;28;20407;-77
2022/03/13 08:36:04;;;;;;;117.55;48.63;;;3.60;45.00;;;;;;5056162;28;20029;-69
2022/03/13 08:38:30;;;;;;;118.88;47.92;;;3.80;44.80;;;;;;5055928;28;20013;-77
2022/03/13 08:40:56;;;;;;;41.83;17.42;;;4.00;44.90;;;;;;5056147;28;20027;-77
2022/03/13 08:43:22;;;;;;;23.58;11.95;;;4.00;43.50;;;;;;5055937;28;20126;-77
2022/03/13 08:45:47;;;;;;;61.25;25.17;;;4.10;41.20;;;;;;5055763;28;20021;-77
2022/03/13 08:48:16;;;;;;;49.58;21.23;;;4.30;41.20;;;;;;5055093;28;20109;-77
2022/03/13 08:50:41;;;;;;;89.80;35.17;;;4.40;40.70;;;;;;5054111;28;20071;-77
2022/03/13 08:53:08;;;;;;;102.35;43.40;;;4.50;39.60;;;;;;5055243;28;20438;-77
2022/03/13 08:55:34;;;;;;;44.50;20.50;;;4.60;39.80;;;;;;5054531;28;20474;-70
2022/03/13 08:57:59;;;;;;;26.05;12.70;;;4.60;39.60;;;;;;5055882;28;20035;-77
2022/03/13 09:00:26;;;;;;;30.45;14.85;;;4.70;39.30;;;;;;5055766;28;20025;-78
2022/03/13 09:02:53;;;;;;;69.00;26.63;;;4.80;39.50;;;;;;5054206;28;20029;-69
2022/03/13 09:05:20;;;;;;;36.42;15.40;;;4.80;37.60;;;;;;5055740;28;20055;-70
2022/03/13 09:07:46;;;;;;;91.43;37.95;;;4.80;37.50;;;;;;5055338;28;20024;-69
2022/03/13 09:10:12;;;;;;;62.05;26.02;;;4.80;36.80;;;;;;5055639;28;20029;-77
2022/03/13 09:12:39;;;;;;;24.60;11.38;;;4.90;36.80;;;;;;5054584;28;20028;-69
2022/03/13 09:15:06;;;;;;;21.67;9.55;;;4.90;36.40;;;;;;5055170;28;20036;-69
2022/03/13 09:17:31;;;;;;;26.85;12.70;;;5.10;35.90;;;;;;5055366;28;20033;-77
2022/03/13 09:19:58;;;;;;;17.65;9.85;;;5.40;35.10;;;;;;5054094;28;20032;-70
2022/03/13 09:22:28;;;;;;;19.70;9.25;;;5.60;34.70;;;;;;5055041;28;20071;-77
2022/03/13 09:24:57;;;;;;;14.65;8.95;;;5.80;34.50;;;;;;5054525;28;20136;-69
2022/03/13 09:27:23;;;;;;;13.73;7.50;;;5.90;33.60;;;;;;5055326;28;20009;-69
2022/03/13 09:29:49;;;;;;;48.10;18.17;;;6.00;32.30;;;;;;5055232;28;20029;-70
2022/03/13 09:32:14;;;;;;;55.05;20.83;;;6.10;32.40;;;;;;5055211;28;20048;-70
2022/03/13 09:34:40;;;;;;;16.45;9.68;;;6.30;32.10;;;;;;5053938;28;20029;-69
2022/03/13 09:37:05;;;;;;;42.88;19.10;;;6.30;31.60;;;;;;5054707;28;20029;-69
2022/03/13 09:39:31;;;;;;;30.58;15.23;;;6.40;31.70;;;;;;5054630;28;20025;-77
2022/03/13 09:41:57;;;;;;;22.70;10.82;;;6.50;32.50;;;;;;5055142;28;20161;-69
2022/03/13 09:44:24;;;;;;;24.45;10.57;;;6.60;32.20;;;;;;5054468;28;20147;-71
2022/03/13 09:46:49;;;;;;;34.95;14.30;;;6.70;30.90;;;;;;5049476;28;20467;-77
2022/03/13 09:49:16;;;;;;;21.08;10.25;;;6.80;30.20;;;;;;5034947;28;20100;-77
2022/03/13 09:51:42;;;;;;;16.30;9.68;;;6.90;31.00;;;;;;5033612;28;20546;-70
2022/03/13 09:54:08;;;;;;;17.27;9.75;;;6.70;30.70;;;;;;5034815;28;20076;-77
2022/03/13 09:56:35;;;;;;;19.52;9.65;;;6.60;31.50;;;;;;5035024;28;20025;-70
2022/03/13 09:59:01;;;;;;;26.75;13.75;;;6.70;31.70;;;;;;5034906;28;20056;-70
2022/03/13 10:01:27;;;;;;;14.02;8.35;;;6.70;31.60;;;;;;5033588;28;20499;-77
2022/03/13 10:03:54;;;;;;;11.90;7.38;;;6.70;30.20;;;;;;5034712;28;20399;-71
2022/03/13 10:06:19;;;;;;;16.25;9.27;;;6.80;31.40;;;;;;5034711;28;20025;-77
2022/03/13 10:08:45;;;;;;;12.82;7.95;;;7.00;30.30;;;;;;5034573;28;20036;-77
2022/03/13 10:11:11;;;;;;;19.23;11.10;;;7.00;30.10;;;;;;5033328;28;20123;-69
2022/03/13 10:13:40;;;;;;;30.45;15.93;;;7.10;30.00;;;;;;5034700;28;20014;-70
2022/03/13 10:16:08;;;;;;;14.90;7.38;;;7.10;28.70;;;;;;5034440;28;20028;-70
2022/03/13 10:18:34;;;;;;;10.75;7.10;;;7.10;27.30;;;;;;5033316;28;20113;-70
2022/03/13 10:21:08;;;;;;;13.02;7.25;;;7.10;27.80;;;;;;5034523;28;20180;-70
2022/03/13 10:23:34;;;;;;;7.22;5.20;;;7.00;28.10;;;;;;5034349;28;20049;-77
2022/03/13 10:26:00;;;;;;;10.57;6.15;;;7.10;27.70;;;;;;5034415;28;20025;-70
2022/03/13 10:28:31;;;;;;;9.30;5.53;;;7.20;27.60;;;;;;5032626;28;20021;-77
2022/03/13 10:30:59;;;;;;;12.75;7.20;;;6.90;25.20;;;;;;5032199;28;20494;-76
2022/03/13 10:33:44;;;;;;;17.13;8.65;;;7.10;26.20;;;;;;5032762;28;20025;-76
2022/03/13 10:36:14;;;;;;;15.45;8.52;;;7.20;27.80;;;;;;5030524;28;20029;-76
2022/03/13 10:38:41;;;;;;;16.55;9.68;;;7.20;28.50;;;;;;5032487;28;20651;-76
2022/03/13 10:41:12;;;;;;;21.52;10.95;;;7.30;29.70;;;;;;5032468;28;20032;-77
2022/03/13 10:43:51;;;;;;;16.75;9.23;;;7.40;29.50;;;;;;5033882;28;20069;-76
2022/03/13 10:46:31;;;;;;;14.65;8.35;;;7.40;29.60;;;;;;5052200;28;20121;-76
2022/03/13 10:48:59;;;;;;;14.88;8.35;;;7.40;29.60;;;;;;5053327;28;20032;-76
2022/03/13 10:51:41;;;;;;;16.40;8.02;;;7.20;28.40;;;;;;5052378;28;20043;-70
2022/03/13 10:54:07;;;;;;;10.25;7.43;;;7.20;27.70;;;;;;5053490;28;20019;-69
2022/03/13 10:56:33;;;;;;;15.57;7.70;;;7.30;27.50;;;;;;5052284;28;20076;-77
2022/03/13 10:59:15;;;;;;;12.10;7.28;;;7.20;26.40;;;;;;5053214;28;20111;-78
2022/03/13 11:01:40;;;;;;;12.63;7.18;;;7.30;25.50;;;;;;5053503;28;20028;-76
2022/03/13 11:04:06;;;;;;;11.30;5.60;;;7.40;26.30;;;;;;5051921;28;20032;-76
2022/03/13 11:06:32;;;;;;;9.68;5.70;;;7.40;25.30;;;;;;5053352;28;20425;-76
2022/03/13 11:08:59;;;;;;;9.68;5.30;;;7.40;25.10;;;;;;5053004;28;20156;-76
2022/03/13 11:11:27;;;;;;;9.35;5.00;;;7.40;24.60;;;;;;5053245;28;20486;-76
2022/03/13 11:13:59;;;;;;;11.68;5.93;;;7.30;23.70;;;;;;5053157;28;20410;-70
2022/03/13 11:16:32;;;;;;;7.15;5.38;;;7.20;22.50;;;;;;5049698;28;20561;-69
2022/03/13 11:19:02;;;;;;;21.80;9.48;;;7.30;22.70;;;;;;5050687;28;20021;-70
2022/03/13 11:21:28;;;;;;;116.68;45.50;;;7.40;22.80;;;;;;5052241;28;20540;-70
2022/03/13 11:23:54;;;;;;;182.48;72.60;;;7.40;23.00;;;;;;5051759;28;20073;-76
2022/03/13 11:26:24;;;;;;;111.82;44.95;;;7.50;23.90;;;;;;5050776;28;20029;-69
2022/03/13 11:28:51;;;;;;;65.25;30.05;;;7.50;24.40;;;;;;5047752;28;20048;-76
2022/03/13 11:31:38;;;;;;;185.40;84.72;;;7.50;25.20;;;;;;5053125;28;20021;-76
2022/03/13 11:34:21;;;;;;;112.85;43.60;;;7.70;26.10;;;;;;5052215;28;20074;-76
2022/03/13 11:36:47;;;;;;;91.47;38.88;;;7.70;25.90;;;;;;5052889;28;20099;-76
2022/03/13 11:39:25;;;;;;;19.88;10.40;;;7.70;25.10;;;;;;5052928;28;20471;-76
2022/03/13 11:41:50;;;;;;;16.08;8.57;;;7.70;24.80;;;;;;5051624;28;20028;-69
2022/03/13 11:44:22;;;;;;;36.03;16.23;;;7.70;25.10;;;;;;5052362;28;20029;-70
2022/03/13 11:46:49;;;;;;;35.85;13.93;;;7.80;24.80;;;;;;5052776;28;20056;-69
2022/03/13 11:49:30;;;;;;;59.17;25.67;;;7.70;24.60;;;;;;5055383;28;20390;-70
2022/03/13 11:52:11;;;;;;;43.28;17.95;;;7.90;25.10;;;;;;5055640;28;20428;-70
2022/03/13 11:54:53;;;;;;;30.52;14.30;;;8.00;23.60;;;;;;5056729;28;20024;-70
2022/03/13 11:57:41;;;;;;;40.08;16.17;;;8.00;23.80;;;;;;5055634;28;20033;-69
2022/03/13 12:00:28;;;;;;;22.48;10.13;;;8.00;24.20;;;;;;5056707;28;20017;-76
2022/03/13 12:03:06;;;;;;;14.15;7.20;;;8.20;23.00;;;;;;5056601;28;20028;-69
2022/03/13 12:05:32;;;;;;;16.52;8.93;;;8.20;22.90;;;;;;5056579;28;20021;-69
2022/03/13 12:08:08;;;;;;;15.02;8.43;;;8.20;23.10;;;;;;5056527;28;20083;-69
2022/03/13 12:10:37;;;;;;;46.78;20.67;;;8.20;22.10;;;;;;5056599;28;20017;-69
2022/03/13 12:13:08;;;;;;;21.02;11.02;;;8.20;22.40;;;;;;5055042;28;20108;-70
2022/03/13 12:15:35;;;;;;;66.72;27.85;;;8.20;22.90;;;;;;5056261;28;20021;-70
2022/03/13 12:18:17;;;;;;;61.35;25.08;;;8.20;22.60;;;;;;5056397;28;20032;-70
2022/03/13 12:20:43;;;;;;;23.15;12.13;;;8.20;23.70;;;;;;5056300;28;20060;-70
2022/03/13 12:23:09;;;;;;;20.55;9.98;;;8.20;23.80;;;;;;5056064;28;20049;-69
2022/03/13 12:25:35;;;;;;;17.33;9.35;;;8.20;23.30;;;;;;5056081;28;20070;-70
2022/03/13 12:28:01;;;;;;;19.60;10.25;;;8.20;23.60;;;;;;5054933;28;20021;-69
2022/03/13 12:30:32;;;;;;;24.65;14.32;;;8.10;25.20;;;;;;5056340;28;20023;-71
2022/03/13 12:33:02;;;;;;;17.30;11.13;;;8.10;25.10;;;;;;5056129;28;20537;-70
2022/03/13 12:35:28;;;;;;;15.05;8.43;;;8.10;24.90;;;;;;5056005;28;20100;-70